sensor_id;sensor_type;location;lat;lon;timestamp;P1;durP1;ratioP1;P2;durP2;ratioP2
19593;SDS011;9944;48.240;16.478;2022-10-16T00:00:21;20.15;;;11.88;;
19593;SDS011;9944;48.240;16.478;2022-10-16T00:04:24;20.80;;;12.57;;
19593;SDS011;9944;48.240;16.478;2022-10-16T00:08:27;18.08;;;11.80;;
19593;SDS011;9944;48.240;16.478;2022-10-16T00:12:31;20.42;;;13.18;;
19593;SDS011;9944;48.240;16.478;2022-10-16T00:16:35;21.20;;;13.07;;
19593;SDS011;9944;48.240;16.478;2022-10-16T00:20:38;21.63;;;12.93;;
19593;SDS011;9944;48.240;16.478;2022-10-16T00:24:41;16.33;;;10.93;;
19593;SDS011;9944;48.240;16.478;2022-10-16T00:28:45;14.40;;;10.00;;
19593;SDS011;9944;48.240;16.478;2022-10-16T00:32:50;18.20;;;10.98;;
19593;SDS011;9944;48.240;16.478;2022-10-16T00:36:53;15.35;;;10.30;;
19593;SDS011;9944;48.240;16.478;2022-10-16T00:40:56;15.65;;;11.00;;
19593;SDS011;9944;48.240;16.478;2022-10-16T00:45:00;19.17;;;11.63;;
19593;SDS011;9944;48.240;16.478;2022-10-16T00:49:05;18.17;;;11.40;;
19593;SDS011;9944;48.240;16.478;2022-10-16T00:53:11;18.00;;;10.68;;
19593;SDS011;9944;48.240;16.478;2022-10-16T00:57:14;18.77;;;12.13;;
19593;SDS011;9944;48.240;16.478;2022-10-16T01:01:17;17.77;;;11.70;;
19593;SDS011;9944;48.240;16.478;2022-10-16T01:05:22;14.98;;;10.52;;
19593;SDS011;9944;48.240;16.478;2022-10-16T01:09:30;14.45;;;9.90;;
19593;SDS011;9944;48.240;16.478;2022-10-16T01:13:41;15.20;;;9.82;;
19593;SDS011;9944;48.240;16.478;2022-10-16T01:17:49;14.20;;;9.25;;
19593;SDS011;9944;48.240;16.478;2022-10-16T01:21:57;14.18;;;9.63;;
19593;SDS011;9944;48.240;16.478;2022-10-16T01:26:09;16.15;;;10.40;;
19593;SDS011;9944;48.240;16.478;2022-10-16T01:30:24;14.75;;;9.82;;
19593;SDS011;9944;48.240;16.478;2022-10-16T01:34:32;11.93;;;8.63;;
19593;SDS011;9944;48.240;16.478;2022-10-16T01:38:40;15.00;;;9.93;;
19593;SDS011;9944;48.240;16.478;2022-10-16T01:42:46;13.50;;;8.68;;
19593;SDS011;9944;48.240;16.478;2022-10-16T01:46:53;13.55;;;9.40;;
19593;SDS011;9944;48.240;16.478;2022-10-16T01:50:59;12.63;;;9.23;;
19593;SDS011;9944;48.240;16.478;2022-10-16T01:55:07;11.00;;;8.07;;
19593;SDS011;9944;48.240;16.478;2022-10-16T01:59:14;11.40;;;8.55;;
19593;SDS011;9944;48.240;16.478;2022-10-16T02:03:22;10.95;;;8.45;;
19593;SDS011;9944;48.240;16.478;2022-10-16T02:07:25;12.23;;;8.93;;
19593;SDS011;9944;48.240;16.478;2022-10-16T02:11:29;11.55;;;8.70;;
19593;SDS011;9944;48.240;16.478;2022-10-16T02:15:33;12.68;;;8.30;;
19593;SDS011;9944;48.240;16.478;2022-10-16T02:19:37;13.30;;;8.68;;
19593;SDS011;9944;48.240;16.478;2022-10-16T02:23:43;16.13;;;10.30;;
19593;SDS011;9944;48.240;16.478;2022-10-16T02:27:53;16.73;;;10.95;;
19593;SDS011;9944;48.240;16.478;2022-10-16T02:32:00;14.13;;;9.98;;
19593;SDS011;9944;48.240;16.478;2022-10-16T02:36:08;15.43;;;9.93;;
19593;SDS011;9944;48.240;16.478;2022-10-16T02:40:12;11.52;;;9.35;;
19593;SDS011;9944;48.240;16.478;2022-10-16T02:44:19;14.07;;;10.10;;
19593;SDS011;9944;48.240;16.478;2022-10-16T02:48:23;12.43;;;9.73;;
19593;SDS011;9944;48.240;16.478;2022-10-16T02:52:27;12.27;;;9.13;;
19593;SDS011;9944;48.240;16.478;2022-10-16T02:56:30;12.82;;;9.48;;
19593;SDS011;9944;48.240;16.478;2022-10-16T03:00:33;14.75;;;10.10;;
19593;SDS011;9944;48.240;16.478;2022-10-16T03:04:37;14.52;;;9.88;;
19593;SDS011;9944;48.240;16.478;2022-10-16T03:08:42;13.35;;;10.45;;
19593;SDS011;9944;48.240;16.478;2022-10-16T03:12:45;13.30;;;9.63;;
19593;SDS011;9944;48.240;16.478;2022-10-16T03:16:48;16.17;;;11.00;;
19593;SDS011;9944;48.240;16.478;2022-10-16T03:20:51;16.05;;;11.02;;
19593;SDS011;9944;48.240;16.478;2022-10-16T03:24:56;15.75;;;11.07;;
19593;SDS011;9944;48.240;16.478;2022-10-16T03:28:59;19.45;;;11.73;;
19593;SDS011;9944;48.240;16.478;2022-10-16T03:33:04;17.92;;;10.75;;
19593;SDS011;9944;48.240;16.478;2022-10-16T03:37:07;13.93;;;10.00;;
19593;SDS011;9944;48.240;16.478;2022-10-16T03:41:11;14.30;;;9.90;;
19593;SDS011;9944;48.240;16.478;2022-10-16T03:45:14;13.93;;;9.77;;
19593;SDS011;9944;48.240;16.478;2022-10-16T03:49:17;14.25;;;10.18;;
19593;SDS011;9944;48.240;16.478;2022-10-16T03:53:20;13.82;;;9.27;;
19593;SDS011;9944;48.240;16.478;2022-10-16T03:57:25;12.25;;;8.48;;
19593;SDS011;9944;48.240;16.478;2022-10-16T04:01:29;12.43;;;9.45;;
19593;SDS011;9944;48.240;16.478;2022-10-16T04:05:32;12.82;;;9.25;;
19593;SDS011;9944;48.240;16.478;2022-10-16T04:09:35;14.55;;;10.38;;
19593;SDS011;9944;48.240;16.478;2022-10-16T04:13:40;11.93;;;8.75;;
19593;SDS011;9944;48.240;16.478;2022-10-16T04:17:43;13.90;;;10.18;;
19593;SDS011;9944;48.240;16.478;2022-10-16T04:21:46;18.80;;;12.18;;
19593;SDS011;9944;48.240;16.478;2022-10-16T04:25:50;14.68;;;10.85;;
19593;SDS011;9944;48.240;16.478;2022-10-16T04:29:55;14.60;;;10.32;;
19593;SDS011;9944;48.240;16.478;2022-10-16T04:33:58;14.43;;;9.63;;
19593;SDS011;9944;48.240;16.478;2022-10-16T04:38:01;15.60;;;10.55;;
19593;SDS011;9944;48.240;16.478;2022-10-16T04:42:04;16.90;;;10.93;;
19593;SDS011;9944;48.240;16.478;2022-10-16T04:46:08;15.75;;;11.05;;
19593;SDS011;9944;48.240;16.478;2022-10-16T04:50:12;17.10;;;10.98;;
19593;SDS011;9944;48.240;16.478;2022-10-16T04:54:32;20.05;;;12.38;;
19593;SDS011;9944;48.240;16.478;2022-10-16T04:58:35;17.48;;;12.10;;
19593;SDS011;9944;48.240;16.478;2022-10-16T05:02:40;16.90;;;12.07;;
19593;SDS011;9944;48.240;16.478;2022-10-16T05:06:43;20.00;;;12.75;;
19593;SDS011;9944;48.240;16.478;2022-10-16T05:10:46;19.67;;;12.45;;
19593;SDS011;9944;48.240;16.478;2022-10-16T05:14:49;23.67;;;13.32;;
19593;SDS011;9944;48.240;16.478;2022-10-16T05:18:54;20.85;;;13.23;;
19593;SDS011;9944;48.240;16.478;2022-10-16T05:23:17;24.02;;;14.20;;
19593;SDS011;9944;48.240;16.478;2022-10-16T05:27:20;24.30;;;14.00;;
19593;SDS011;9944;48.240;16.478;2022-10-16T05:31:24;27.48;;;16.38;;
19593;SDS011;9944;48.240;16.478;2022-10-16T05:35:28;25.60;;;14.57;;
19593;SDS011;9944;48.240;16.478;2022-10-16T05:39:31;26.83;;;15.13;;
19593;SDS011;9944;48.240;16.478;2022-10-16T05:43:34;23.13;;;14.80;;
19593;SDS011;9944;48.240;16.478;2022-10-16T05:47:38;27.08;;;16.05;;
19593;SDS011;9944;48.240;16.478;2022-10-16T05:51:42;28.20;;;15.75;;
19593;SDS011;9944;48.240;16.478;2022-10-16T05:55:51;30.23;;;16.00;;
19593;SDS011;9944;48.240;16.478;2022-10-16T05:59:54;36.05;;;16.33;;
19593;SDS011;9944;48.240;16.478;2022-10-16T06:03:58;30.38;;;16.85;;
19593;SDS011;9944;48.240;16.478;2022-10-16T06:08:03;32.80;;;17.20;;
19593;SDS011;9944;48.240;16.478;2022-10-16T06:12:06;31.80;;;16.92;;
19593;SDS011;9944;48.240;16.478;2022-10-16T06:16:10;30.08;;;17.33;;
19593;SDS011;9944;48.240;16.478;2022-10-16T06:20:13;34.65;;;19.08;;
19593;SDS011;9944;48.240;16.478;2022-10-16T06:24:17;30.67;;;17.02;;
19593;SDS011;9944;48.240;16.478;2022-10-16T06:28:21;33.47;;;17.92;;
19593;SDS011;9944;48.240;16.478;2022-10-16T06:32:24;35.22;;;18.48;;
19593;SDS011;9944;48.240;16.478;2022-10-16T06:36:27;31.83;;;17.17;;
19593;SDS011;9944;48.240;16.478;2022-10-16T06:40:32;34.28;;;18.92;;
19593;SDS011;9944;48.240;16.478;2022-10-16T06:44:36;28.10;;;16.98;;
19593;SDS011;9944;48.240;16.478;2022-10-16T06:48:39;33.15;;;17.58;;
19593;SDS011;9944;48.240;16.478;2022-10-16T06:52:42;29.13;;;16.05;;
19593;SDS011;9944;48.240;16.478;2022-10-16T06:56:47;32.85;;;18.20;;
19593;SDS011;9944;48.240;16.478;2022-10-16T07:00:54;30.70;;;17.42;;
19593;SDS011;9944;48.240;16.478;2022-10-16T07:04:59;32.50;;;17.52;;
19593;SDS011;9944;48.240;16.478;2022-10-16T07:09:03;31.75;;;17.65;;
19593;SDS011;9944;48.240;16.478;2022-10-16T07:13:09;33.45;;;18.25;;
19593;SDS011;9944;48.240;16.478;2022-10-16T07:17:14;32.08;;;17.83;;
19593;SDS011;9944;48.240;16.478;2022-10-16T07:21:19;33.97;;;18.33;;
19593;SDS011;9944;48.240;16.478;2022-10-16T07:25:22;31.42;;;17.70;;
19593;SDS011;9944;48.240;16.478;2022-10-16T07:29:27;33.78;;;18.73;;
19593;SDS011;9944;48.240;16.478;2022-10-16T07:33:30;40.63;;;19.10;;
19593;SDS011;9944;48.240;16.478;2022-10-16T07:37:33;37.38;;;18.83;;
19593;SDS011;9944;48.240;16.478;2022-10-16T07:41:37;36.00;;;19.85;;
19593;SDS011;9944;48.240;16.478;2022-10-16T07:45:47;37.13;;;20.30;;
19593;SDS011;9944;48.240;16.478;2022-10-16T07:49:55;35.58;;;19.25;;
19593;SDS011;9944;48.240;16.478;2022-10-16T07:53:59;32.70;;;18.55;;
19593;SDS011;9944;48.240;16.478;2022-10-16T07:58:03;34.03;;;19.65;;
19593;SDS011;9944;48.240;16.478;2022-10-16T08:02:08;34.15;;;19.25;;
19593;SDS011;9944;48.240;16.478;2022-10-16T08:06:11;31.38;;;18.67;;
19593;SDS011;9944;48.240;16.478;2022-10-16T08:10:15;36.10;;;19.83;;
19593;SDS011;9944;48.240;16.478;2022-10-16T08:14:20;35.40;;;18.85;;
19593;SDS011;9944;48.240;16.478;2022-10-16T08:18:24;32.53;;;18.67;;
19593;SDS011;9944;48.240;16.478;2022-10-16T08:22:27;31.70;;;18.35;;
19593;SDS011;9944;48.240;16.478;2022-10-16T08:26:30;31.23;;;18.95;;
19593;SDS011;9944;48.240;16.478;2022-10-16T08:30:34;37.60;;;20.85;;
19593;SDS011;9944;48.240;16.478;2022-10-16T08:34:39;35.65;;;20.20;;
19593;SDS011;9944;48.240;16.478;2022-10-16T08:38:42;34.97;;;19.50;;
19593;SDS011;9944;48.240;16.478;2022-10-16T08:42:47;36.67;;;19.90;;
19593;SDS011;9944;48.240;16.478;2022-10-16T08:47:02;37.83;;;20.20;;
19593;SDS011;9944;48.240;16.478;2022-10-16T08:51:19;41.03;;;21.10;;
19593;SDS011;9944;48.240;16.478;2022-10-16T08:55:29;38.30;;;21.08;;
19593;SDS011;9944;48.240;16.478;2022-10-16T08:59:36;36.03;;;20.20;;
19593;SDS011;9944;48.240;16.478;2022-10-16T09:03:52;37.40;;;20.20;;
19593;SDS011;9944;48.240;16.478;2022-10-16T09:08:19;37.55;;;20.35;;
19593;SDS011;9944;48.240;16.478;2022-10-16T09:12:31;34.55;;;18.48;;
19593;SDS011;9944;48.240;16.478;2022-10-16T09:16:44;31.50;;;18.40;;
19593;SDS011;9944;48.240;16.478;2022-10-16T09:20:56;28.05;;;17.02;;
19593;SDS011;9944;48.240;16.478;2022-10-16T09:25:10;29.60;;;17.48;;
19593;SDS011;9944;48.240;16.478;2022-10-16T09:29:15;41.20;;;19.92;;
19593;SDS011;9944;48.240;16.478;2022-10-16T09:33:22;34.22;;;17.92;;
19593;SDS011;9944;48.240;16.478;2022-10-16T09:37:30;32.00;;;18.30;;
19593;SDS011;9944;48.240;16.478;2022-10-16T09:41:35;31.55;;;19.13;;
19593;SDS011;9944;48.240;16.478;2022-10-16T09:45:40;31.70;;;19.27;;
19593;SDS011;9944;48.240;16.478;2022-10-16T09:49:50;31.52;;;18.20;;
19593;SDS011;9944;48.240;16.478;2022-10-16T09:53:55;31.10;;;18.33;;
19593;SDS011;9944;48.240;16.478;2022-10-16T09:58:01;30.90;;;18.77;;
19593;SDS011;9944;48.240;16.478;2022-10-16T10:02:04;30.13;;;17.35;;
19593;SDS011;9944;48.240;16.478;2022-10-16T10:06:17;33.80;;;18.85;;
19593;SDS011;9944;48.240;16.478;2022-10-16T10:10:24;30.00;;;18.00;;
19593;SDS011;9944;48.240;16.478;2022-10-16T10:14:32;31.55;;;18.95;;
19593;SDS011;9944;48.240;16.478;2022-10-16T10:18:38;35.35;;;19.17;;
19593;SDS011;9944;48.240;16.478;2022-10-16T10:22:42;35.92;;;19.27;;
19593;SDS011;9944;48.240;16.478;2022-10-16T10:26:49;29.17;;;16.73;;
19593;SDS011;9944;48.240;16.478;2022-10-16T10:31:00;30.02;;;18.05;;
19593;SDS011;9944;48.240;16.478;2022-10-16T10:35:13;32.10;;;17.55;;
19593;SDS011;9944;48.240;16.478;2022-10-16T10:39:19;34.63;;;16.95;;
19593;SDS011;9944;48.240;16.478;2022-10-16T10:43:31;27.25;;;16.92;;
19593;SDS011;9944;48.240;16.478;2022-10-16T10:47:50;28.38;;;17.10;;
19593;SDS011;9944;48.240;16.478;2022-10-16T10:52:07;28.65;;;16.65;;
19593;SDS011;9944;48.240;16.478;2022-10-16T10:56:28;26.02;;;15.50;;
19593;SDS011;9944;48.240;16.478;2022-10-16T11:00:46;25.27;;;15.13;;
19593;SDS011;9944;48.240;16.478;2022-10-16T11:09:30;27.13;;;15.77;;
19593;SDS011;9944;48.240;16.478;2022-10-16T11:13:38;26.08;;;14.35;;
19593;SDS011;9944;48.240;16.478;2022-10-16T11:17:46;24.50;;;15.02;;
19593;SDS011;9944;48.240;16.478;2022-10-16T11:21:55;28.98;;;16.63;;
19593;SDS011;9944;48.240;16.478;2022-10-16T11:26:04;27.50;;;16.45;;
19593;SDS011;9944;48.240;16.478;2022-10-16T11:30:14;27.55;;;16.83;;
19593;SDS011;9944;48.240;16.478;2022-10-16T11:34:22;25.85;;;16.17;;
19593;SDS011;9944;48.240;16.478;2022-10-16T11:38:38;24.23;;;15.55;;
19593;SDS011;9944;48.240;16.478;2022-10-16T11:42:49;26.83;;;16.02;;
19593;SDS011;9944;48.240;16.478;2022-10-16T11:46:59;25.23;;;15.15;;
19593;SDS011;9944;48.240;16.478;2022-10-16T11:51:31;21.77;;;14.93;;
19593;SDS011;9944;48.240;16.478;2022-10-16T11:55:40;26.73;;;15.48;;
19593;SDS011;9944;48.240;16.478;2022-10-16T11:59:48;24.88;;;15.20;;
19593;SDS011;9944;48.240;16.478;2022-10-16T12:03:59;27.45;;;15.30;;
19593;SDS011;9944;48.240;16.478;2022-10-16T12:08:10;26.77;;;16.30;;
19593;SDS011;9944;48.240;16.478;2022-10-16T12:12:26;22.58;;;14.63;;
19593;SDS011;9944;48.240;16.478;2022-10-16T12:16:36;23.70;;;14.27;;
19593;SDS011;9944;48.240;16.478;2022-10-16T12:20:40;26.33;;;15.23;;
19593;SDS011;9944;48.240;16.478;2022-10-16T12:24:50;24.42;;;14.70;;
19593;SDS011;9944;48.240;16.478;2022-10-16T12:28:56;22.83;;;14.18;;
19593;SDS011;9944;48.240;16.478;2022-10-16T12:33:20;23.40;;;13.85;;
19593;SDS011;9944;48.240;16.478;2022-10-16T12:37:26;20.75;;;13.45;;
19593;SDS011;9944;48.240;16.478;2022-10-16T12:41:33;23.73;;;14.23;;
19593;SDS011;9944;48.240;16.478;2022-10-16T12:45:40;20.80;;;13.70;;
19593;SDS011;9944;48.240;16.478;2022-10-16T12:49:52;22.48;;;14.15;;
19593;SDS011;9944;48.240;16.478;2022-10-16T12:53:59;21.42;;;13.77;;
19593;SDS011;9944;48.240;16.478;2022-10-16T12:58:09;20.08;;;12.90;;
19593;SDS011;9944;48.240;16.478;2022-10-16T13:02:29;23.63;;;13.88;;
19593;SDS011;9944;48.240;16.478;2022-10-16T13:06:51;21.13;;;13.15;;
19593;SDS011;9944;48.240;16.478;2022-10-16T13:11:00;20.67;;;13.10;;
19593;SDS011;9944;48.240;16.478;2022-10-16T13:15:19;21.25;;;14.25;;
19593;SDS011;9944;48.240;16.478;2022-10-16T13:19:32;18.00;;;12.07;;
19593;SDS011;9944;48.240;16.478;2022-10-16T13:23:45;21.92;;;13.80;;
19593;SDS011;9944;48.240;16.478;2022-10-16T13:27:55;19.42;;;12.88;;
19593;SDS011;9944;48.240;16.478;2022-10-16T13:32:01;19.75;;;13.13;;
19593;SDS011;9944;48.240;16.478;2022-10-16T13:36:21;20.20;;;13.27;;
19593;SDS011;9944;48.240;16.478;2022-10-16T13:40:26;22.90;;;13.57;;
19593;SDS011;9944;48.240;16.478;2022-10-16T13:44:30;19.98;;;12.98;;
19593;SDS011;9944;48.240;16.478;2022-10-16T13:48:38;17.65;;;11.52;;
19593;SDS011;9944;48.240;16.478;2022-10-16T13:52:42;20.95;;;12.45;;
19593;SDS011;9944;48.240;16.478;2022-10-16T13:56:46;18.50;;;11.48;;
19593;SDS011;9944;48.240;16.478;2022-10-16T14:01:04;18.73;;;11.80;;
19593;SDS011;9944;48.240;16.478;2022-10-16T14:05:08;21.85;;;12.15;;
19593;SDS011;9944;48.240;16.478;2022-10-16T14:09:17;18.67;;;11.90;;
19593;SDS011;9944;48.240;16.478;2022-10-16T14:13:29;16.55;;;11.57;;
19593;SDS011;9944;48.240;16.478;2022-10-16T14:17:36;16.38;;;10.93;;
19593;SDS011;9944;48.240;16.478;2022-10-16T14:21:46;17.05;;;11.20;;
19593;SDS011;9944;48.240;16.478;2022-10-16T14:25:50;18.02;;;11.23;;
19593;SDS011;9944;48.240;16.478;2022-10-16T14:30:03;18.98;;;11.40;;
19593;SDS011;9944;48.240;16.478;2022-10-16T14:34:22;23.17;;;12.65;;
19593;SDS011;9944;48.240;16.478;2022-10-16T14:38:28;17.33;;;11.30;;
19593;SDS011;9944;48.240;16.478;2022-10-16T14:42:34;17.33;;;11.35;;
19593;SDS011;9944;48.240;16.478;2022-10-16T14:46:38;17.88;;;11.07;;
19593;SDS011;9944;48.240;16.478;2022-10-16T14:50:43;18.00;;;11.77;;
19593;SDS011;9944;48.240;16.478;2022-10-16T14:54:48;18.05;;;11.05;;
19593;SDS011;9944;48.240;16.478;2022-10-16T14:58:53;18.08;;;11.32;;
19593;SDS011;9944;48.240;16.478;2022-10-16T15:02:57;16.55;;;11.15;;
19593;SDS011;9944;48.240;16.478;2022-10-16T15:07:00;18.40;;;11.30;;
19593;SDS011;9944;48.240;16.478;2022-10-16T15:11:03;15.73;;;10.73;;
19593;SDS011;9944;48.240;16.478;2022-10-16T15:19:39;18.48;;;10.75;;
19593;SDS011;9944;48.240;16.478;2022-10-16T15:23:42;18.98;;;11.18;;
19593;SDS011;9944;48.240;16.478;2022-10-16T15:27:45;18.67;;;11.90;;
19593;SDS011;9944;48.240;16.478;2022-10-16T15:31:50;18.10;;;12.07;;
19593;SDS011;9944;48.240;16.478;2022-10-16T15:35:53;15.93;;;10.75;;
19593;SDS011;9944;48.240;16.478;2022-10-16T15:39:57;15.88;;;11.02;;
19593;SDS011;9944;48.240;16.478;2022-10-16T15:44:00;19.75;;;10.57;;
19593;SDS011;9944;48.240;16.478;2022-10-16T15:48:05;17.45;;;10.43;;
19593;SDS011;9944;48.240;16.478;2022-10-16T15:52:08;17.77;;;10.85;;
19593;SDS011;9944;48.240;16.478;2022-10-16T15:56:12;15.50;;;10.02;;
19593;SDS011;9944;48.240;16.478;2022-10-16T16:00:17;17.02;;;10.23;;
19593;SDS011;9944;48.240;16.478;2022-10-16T16:04:23;16.90;;;10.32;;
19593;SDS011;9944;48.240;16.478;2022-10-16T16:08:44;16.15;;;9.82;;
19593;SDS011;9944;48.240;16.478;2022-10-16T16:12:47;16.30;;;10.82;;
19593;SDS011;9944;48.240;16.478;2022-10-16T16:16:53;17.55;;;10.50;;
19593;SDS011;9944;48.240;16.478;2022-10-16T16:20:58;16.63;;;10.63;;
19593;SDS011;9944;48.240;16.478;2022-10-16T16:25:01;16.13;;;10.38;;
19593;SDS011;9944;48.240;16.478;2022-10-16T16:29:04;16.45;;;10.40;;
19593;SDS011;9944;48.240;16.478;2022-10-16T16:33:07;15.02;;;10.07;;
19593;SDS011;9944;48.240;16.478;2022-10-16T16:37:12;15.40;;;9.90;;
19593;SDS011;9944;48.240;16.478;2022-10-16T16:41:15;20.85;;;10.35;;
19593;SDS011;9944;48.240;16.478;2022-10-16T16:45:20;18.50;;;10.00;;
19593;SDS011;9944;48.240;16.478;2022-10-16T16:49:23;17.30;;;10.65;;
19593;SDS011;9944;48.240;16.478;2022-10-16T16:53:28;17.25;;;10.98;;
19593;SDS011;9944;48.240;16.478;2022-10-16T16:57:31;20.60;;;11.43;;
19593;SDS011;9944;48.240;16.478;2022-10-16T17:01:34;16.67;;;10.95;;
19593;SDS011;9944;48.240;16.478;2022-10-16T17:05:37;14.98;;;10.13;;
19593;SDS011;9944;48.240;16.478;2022-10-16T17:09:42;17.23;;;10.32;;
19593;SDS011;9944;48.240;16.478;2022-10-16T17:13:45;18.92;;;10.25;;
19593;SDS011;9944;48.240;16.478;2022-10-16T17:17:55;15.00;;;9.95;;
19593;SDS011;9944;48.240;16.478;2022-10-16T17:21:58;17.00;;;10.18;;
19593;SDS011;9944;48.240;16.478;2022-10-16T17:26:09;17.10;;;10.18;;
19593;SDS011;9944;48.240;16.478;2022-10-16T17:30:14;19.73;;;11.65;;
19593;SDS011;9944;48.240;16.478;2022-10-16T17:34:17;18.48;;;11.68;;
19593;SDS011;9944;48.240;16.478;2022-10-16T17:38:20;16.25;;;10.88;;
19593;SDS011;9944;48.240;16.478;2022-10-16T17:42:24;17.83;;;10.25;;
19593;SDS011;9944;48.240;16.478;2022-10-16T17:46:28;17.55;;;10.90;;
19593;SDS011;9944;48.240;16.478;2022-10-16T17:50:31;18.25;;;9.75;;
19593;SDS011;9944;48.240;16.478;2022-10-16T17:54:34;17.35;;;10.18;;
19593;SDS011;9944;48.240;16.478;2022-10-16T17:58:39;15.55;;;9.65;;
19593;SDS011;9944;48.240;16.478;2022-10-16T18:02:47;17.83;;;10.20;;
19593;SDS011;9944;48.240;16.478;2022-10-16T18:06:51;15.98;;;10.35;;
19593;SDS011;9944;48.240;16.478;2022-10-16T18:10:56;19.40;;;10.48;;
19593;SDS011;9944;48.240;16.478;2022-10-16T18:15:01;17.42;;;10.25;;
19593;SDS011;9944;48.240;16.478;2022-10-16T18:19:04;18.88;;;10.90;;
19593;SDS011;9944;48.240;16.478;2022-10-16T18:23:07;19.45;;;10.40;;
19593;SDS011;9944;48.240;16.478;2022-10-16T18:27:11;16.60;;;9.77;;
19593;SDS011;9944;48.240;16.478;2022-10-16T18:31:16;21.23;;;11.35;;
19593;SDS011;9944;48.240;16.478;2022-10-16T18:35:19;18.77;;;10.90;;
19593;SDS011;9944;48.240;16.478;2022-10-16T18:39:22;19.63;;;11.43;;
19593;SDS011;9944;48.240;16.478;2022-10-16T18:43:25;18.30;;;10.93;;
19593;SDS011;9944;48.240;16.478;2022-10-16T18:47:32;18.90;;;11.05;;
19593;SDS011;9944;48.240;16.478;2022-10-16T18:51:35;20.67;;;11.18;;
19593;SDS011;9944;48.240;16.478;2022-10-16T18:55:41;17.85;;;11.32;;
19593;SDS011;9944;48.240;16.478;2022-10-16T18:59:44;19.52;;;11.88;;
19593;SDS011;9944;48.240;16.478;2022-10-16T19:03:51;16.40;;;10.38;;
19593;SDS011;9944;48.240;16.478;2022-10-16T19:07:56;20.10;;;11.43;;
19593;SDS011;9944;48.240;16.478;2022-10-16T19:11:59;20.17;;;11.48;;
19593;SDS011;9944;48.240;16.478;2022-10-16T19:16:03;20.63;;;11.52;;
19593;SDS011;9944;48.240;16.478;2022-10-16T19:20:22;18.88;;;11.45;;
19593;SDS011;9944;48.240;16.478;2022-10-16T19:24:25;19.27;;;11.50;;
19593;SDS011;9944;48.240;16.478;2022-10-16T19:28:29;19.15;;;11.50;;
19593;SDS011;9944;48.240;16.478;2022-10-16T19:32:32;18.60;;;11.02;;
19593;SDS011;9944;48.240;16.478;2022-10-16T19:36:37;19.42;;;12.45;;
19593;SDS011;9944;48.240;16.478;2022-10-16T19:40:41;19.48;;;11.85;;
19593;SDS011;9944;48.240;16.478;2022-10-16T19:44:44;20.73;;;11.48;;
19593;SDS011;9944;48.240;16.478;2022-10-16T19:48:48;20.33;;;11.88;;
19593;SDS011;9944;48.240;16.478;2022-10-16T19:52:56;19.73;;;11.45;;
19593;SDS011;9944;48.240;16.478;2022-10-16T19:56:59;19.30;;;11.55;;
19593;SDS011;9944;48.240;16.478;2022-10-16T20:01:02;21.27;;;12.70;;
19593;SDS011;9944;48.240;16.478;2022-10-16T20:05:06;19.27;;;12.23;;
19593;SDS011;9944;48.240;16.478;2022-10-16T20:09:11;18.33;;;11.80;;
19593;SDS011;9944;48.240;16.478;2022-10-16T20:13:15;19.52;;;11.63;;
19593;SDS011;9944;48.240;16.478;2022-10-16T20:17:19;19.63;;;12.02;;
19593;SDS011;9944;48.240;16.478;2022-10-16T20:21:22;24.92;;;13.13;;
19593;SDS011;9944;48.240;16.478;2022-10-16T20:25:28;21.17;;;12.10;;
19593;SDS011;9944;48.240;16.478;2022-10-16T20:29:36;21.45;;;12.32;;
19593;SDS011;9944;48.240;16.478;2022-10-16T20:33:40;19.73;;;11.93;;
19593;SDS011;9944;48.240;16.478;2022-10-16T20:37:43;19.80;;;12.23;;
19593;SDS011;9944;48.240;16.478;2022-10-16T20:41:50;19.50;;;12.25;;
19593;SDS011;9944;48.240;16.478;2022-10-16T20:45:57;20.52;;;11.57;;
19593;SDS011;9944;48.240;16.478;2022-10-16T20:50:01;19.95;;;12.50;;
19593;SDS011;9944;48.240;16.478;2022-10-16T20:54:05;22.40;;;12.05;;
19593;SDS011;9944;48.240;16.478;2022-10-16T20:58:10;18.33;;;11.30;;
19593;SDS011;9944;48.240;16.478;2022-10-16T21:02:13;18.33;;;11.77;;
19593;SDS011;9944;48.240;16.478;2022-10-16T21:06:16;27.67;;;15.48;;
19593;SDS011;9944;48.240;16.478;2022-10-16T21:10:20;28.50;;;14.90;;
19593;SDS011;9944;48.240;16.478;2022-10-16T21:14:24;27.15;;;14.23;;
19593;SDS011;9944;48.240;16.478;2022-10-16T21:18:28;23.60;;;13.38;;
19593;SDS011;9944;48.240;16.478;2022-10-16T21:22:31;21.10;;;13.02;;
19593;SDS011;9944;48.240;16.478;2022-10-16T21:26:34;21.10;;;12.75;;
19593;SDS011;9944;48.240;16.478;2022-10-16T21:30:39;21.02;;;12.02;;
19593;SDS011;9944;48.240;16.478;2022-10-16T21:34:42;19.67;;;11.55;;
19593;SDS011;9944;48.240;16.478;2022-10-16T21:38:45;20.38;;;12.02;;
19593;SDS011;9944;48.240;16.478;2022-10-16T21:42:49;19.65;;;12.27;;
19593;SDS011;9944;48.240;16.478;2022-10-16T21:46:53;19.75;;;12.98;;
19593;SDS011;9944;48.240;16.478;2022-10-16T21:50:56;23.35;;;13.32;;
19593;SDS011;9944;48.240;16.478;2022-10-16T21:54:59;22.80;;;11.68;;
19593;SDS011;9944;48.240;16.478;2022-10-16T21:59:03;19.98;;;12.07;;
19593;SDS011;9944;48.240;16.478;2022-10-16T22:03:08;20.70;;;12.07;;
19593;SDS011;9944;48.240;16.478;2022-10-16T22:07:11;20.15;;;13.07;;
19593;SDS011;9944;48.240;16.478;2022-10-16T22:11:15;24.48;;;13.18;;
19593;SDS011;9944;48.240;16.478;2022-10-16T22:15:23;18.90;;;11.90;;
19593;SDS011;9944;48.240;16.478;2022-10-16T22:19:27;22.38;;;12.93;;
19593;SDS011;9944;48.240;16.478;2022-10-16T22:23:30;20.92;;;12.57;;
19593;SDS011;9944;48.240;16.478;2022-10-16T22:27:33;20.73;;;11.85;;
19593;SDS011;9944;48.240;16.478;2022-10-16T22:31:36;19.65;;;11.20;;
19593;SDS011;9944;48.240;16.478;2022-10-16T22:35:41;20.45;;;12.32;;
19593;SDS011;9944;48.240;16.478;2022-10-16T22:39:44;19.90;;;11.77;;
19593;SDS011;9944;48.240;16.478;2022-10-16T22:43:48;20.17;;;11.68;;
19593;SDS011;9944;48.240;16.478;2022-10-16T22:47:51;19.52;;;11.90;;
19593;SDS011;9944;48.240;16.478;2022-10-16T22:51:56;18.60;;;11.50;;
19593;SDS011;9944;48.240;16.478;2022-10-16T22:55:58;19.08;;;11.52;;
19593;SDS011;9944;48.240;16.478;2022-10-16T23:00:02;20.23;;;12.63;;
19593;SDS011;9944;48.240;16.478;2022-10-16T23:04:05;22.80;;;12.30;;
19593;SDS011;9944;48.240;16.478;2022-10-16T23:08:10;20.98;;;12.55;;
19593;SDS011;9944;48.240;16.478;2022-10-16T23:12:14;21.05;;;11.95;;
19593;SDS011;9944;48.240;16.478;2022-10-16T23:16:20;21.13;;;11.88;;
19593;SDS011;9944;48.240;16.478;2022-10-16T23:20:24;22.60;;;12.40;;
19593;SDS011;9944;48.240;16.478;2022-10-16T23:24:30;20.42;;;11.45;;
19593;SDS011;9944;48.240;16.478;2022-10-16T23:28:33;19.88;;;11.25;;
19593;SDS011;9944;48.240;16.478;2022-10-16T23:32:36;24.92;;;12.40;;
19593;SDS011;9944;48.240;16.478;2022-10-16T23:36:39;20.05;;;11.80;;
19593;SDS011;9944;48.240;16.478;2022-10-16T23:40:44;19.38;;;12.63;;
19593;SDS011;9944;48.240;16.478;2022-10-16T23:44:48;21.27;;;12.02;;
19593;SDS011;9944;48.240;16.478;2022-10-16T23:48:51;20.42;;;11.15;;
19593;SDS011;9944;48.240;16.478;2022-10-16T23:52:54;22.33;;;12.43;;
19593;SDS011;9944;48.240;16.478;2022-10-16T23:56:58;18.45;;;11.40;;
